createdAt,value
2022-08-17T00:08:06.123Z,9.6
2022-08-17T00:23:19.368Z,11.3
2022-08-17T00:38:29.139Z,10.3
2022-08-17T00:53:38.194Z,12.2
2022-08-17T01:08:47.906Z,11
2022-08-17T01:23:57.267Z,12.3
2022-08-17T01:39:08.394Z,16.9
2022-08-17T01:54:17.844Z,13.1
2022-08-17T02:09:32.984Z,12.8
2022-08-17T02:25:02.665Z,15.8
2022-08-17T02:40:13.766Z,13.6
2022-08-17T02:55:23.457Z,13.8
2022-08-17T03:10:34.148Z,12.3
2022-08-17T03:25:45.819Z,14.1
2022-08-17T03:41:00.156Z,13
2022-08-17T03:56:09.432Z,18.3
2022-08-17T04:11:18.419Z,13.6
2022-08-17T04:26:54.942Z,16.8
2022-08-17T04:42:04.898Z,14.5
2022-08-17T04:57:14.173Z,15.5
2022-08-17T05:12:23.540Z,15.8
2022-08-17T05:27:36.311Z,19.8
2022-08-17T05:42:45.531Z,23.4
2022-08-17T05:57:56.386Z,18.2
2022-08-17T06:13:09.449Z,13.1
2022-08-17T06:28:19.318Z,11.6
2022-08-17T06:43:29.517Z,10.9
2022-08-17T06:58:40.612Z,12
2022-08-17T07:13:52.114Z,9.9
2022-08-17T07:29:01.367Z,14.3
2022-08-17T07:44:10.761Z,12.4
2022-08-17T07:59:24.362Z,8.8
2022-08-17T08:14:43.036Z,8.1
2022-08-17T08:29:52.688Z,10.5
2022-08-17T08:45:05.816Z,12.6
2022-08-17T09:00:15.495Z,9.2
2022-08-17T09:15:24.775Z,8.6
2022-08-17T09:30:34.674Z,7.8
2022-08-17T09:45:44.530Z,11
2022-08-17T10:00:58.313Z,8.9
2022-08-17T10:16:10.100Z,6.2
2022-08-17T10:31:36.746Z,4.6
2022-08-17T10:46:46.849Z,6.4
2022-08-17T11:01:56.869Z,5.4
2022-08-17T11:17:10.197Z,7.3
2022-08-17T11:32:23.025Z,5.3
2022-08-17T11:47:32.863Z,5.5
2022-08-17T12:02:49.043Z,4.9
2022-08-17T12:17:59.465Z,7.2
2022-08-17T12:33:09.895Z,4.4
2022-08-17T12:48:19.324Z,7.6
2022-08-17T13:03:36.746Z,9.6
2022-08-17T13:18:46.878Z,5
2022-08-17T13:33:55.880Z,6.6
2022-08-17T13:49:05.352Z,4.3
2022-08-17T14:04:15.164Z,4.9
2022-08-17T14:19:24.861Z,4.6
2022-08-17T14:34:33.130Z,4.8
2022-08-17T14:49:42.495Z,7.4
2022-08-17T15:04:51.705Z,7.2
2022-08-17T15:20:00.187Z,9.6
2022-08-17T15:35:10.073Z,5.5
2022-08-17T15:50:18.411Z,6
2022-08-17T16:05:30.240Z,7
2022-08-17T16:20:42.083Z,5.7
2022-08-17T16:35:51.870Z,5.5
2022-08-17T16:51:04.947Z,9.8
2022-08-17T17:06:14.680Z,5.5
2022-08-17T17:21:24.391Z,5.6
2022-08-17T17:36:33.437Z,6.6
2022-08-17T17:52:19.047Z,5.4
2022-08-17T18:07:29.082Z,5.8
2022-08-17T18:22:38.377Z,6.6
2022-08-17T18:37:47.940Z,13.5
2022-08-17T18:52:57.045Z,11.5
2022-08-17T19:08:08.917Z,9
2022-08-17T19:23:20.962Z,8.2
2022-08-17T19:38:30.314Z,9.5
2022-08-17T19:54:07.448Z,9.9
2022-08-17T20:09:17.279Z,10.3
2022-08-17T20:24:26.251Z,8.8
2022-08-17T20:39:35.882Z,8.8
2022-08-17T20:54:45.358Z,10.8
2022-08-17T21:09:54.267Z,9.5
2022-08-17T21:25:03.556Z,8.9
2022-08-17T21:40:13.467Z,13.4
2022-08-17T21:55:22.846Z,11.2
2022-08-17T22:10:32.169Z,11.7
2022-08-17T22:25:41.455Z,10
2022-08-17T22:40:50.687Z,10
2022-08-17T22:56:00.409Z,10.8
2022-08-17T23:11:10.694Z,10.4
2022-08-17T23:26:19.945Z,9.6
2022-08-17T23:41:29.351Z,9.6
2022-08-17T23:56:38.968Z,9.5
